PWSweather.com
Personal Weather Stations
Station Observations
270882
Flassian, LimouxFR 11300

FlassianLimouxFR 11300

Lat: 43.071798, Lon: 2.217292

Elevation: 165

Station Type: Oregon WMR 200

http://www.meteolimoux.fr

High Low Average
Temperature 82.9°F28.3°C 58.6°F14.8°C 71.9°F22.2°C
Dew Point 60.3°F15.7°C 53.2°F11.8°C 57.3°F14.1°C
Winds 9.6 mph 15.4 kmh Calm Calm 3.0 mph SW4.8 kmh SW
Wind Gusts 17.9 mph28.8 kmh -- 7.0 mph11.3 kmh
Humidity 90% 41% 62%
Pressure 30.28 in1025.4 mb 30.10 in1019.3 mb -
Precipitation 0.00 in0.0 mm - -
Hour Temp Dew Point Humidity Winds Wind Gusts Pressure Precip Precip Rate Daily Precip Total
12:02 AM 65.1°F18.4°C 56.7°F13.7°C 74% 2.2 mph W3.5 kmh W 4.0 mph6.4 kmh 30.28 in1025.4 mb - 0.00 in0.0 mm 0.00 in0.0 mm
12:07 AM 65.1°F18.4°C 57.0°F13.9°C 75% 2.7 mph W4.3 kmh W 4.7 mph7.6 kmh 30.25 in1024.4 mb - 0.00 in0.0 mm 0.00 in0.0 mm
12:12 AM 64.6°F18.1°C 56.1°F13.4°C 74% 0.9 mph WSW1.4 kmh WSW 3.6 mph5.8 kmh 30.25 in1024.4 mb - 0.00 in0.0 mm 0.00 in0.0 mm
12:17 AM 64.0°F17.8°C 55.6°F13.1°C 74% 2.0 mph W3.2 kmh W 3.8 mph6.1 kmh 30.25 in1024.4 mb - 0.00 in0.0 mm 0.00 in0.0 mm
12:22 AM 63.5°F17.5°C 55.4°F13.0°C 75% 0.9 mph WSW1.4 kmh WSW 2.9 mph4.7 kmh 30.25 in1024.4 mb - 0.00 in0.0 mm 0.00 in0.0 mm
12:27 AM 63.1°F17.3°C 55.0°F12.8°C 75% 1.3 mph S2.1 kmh S 2.7 mph4.3 kmh 30.25 in1024.4 mb - 0.00 in0.0 mm 0.00 in0.0 mm
12:32 AM 62.8°F17.1°C 54.7°F12.6°C 75% Calm Calm -- 30.25 in1024.4 mb - 0.00 in0.0 mm 0.00 in0.0 mm
12:37 AM 62.4°F16.9°C 55.0°F12.8°C 77% Calm Calm -- 30.25 in1024.4 mb - 0.00 in0.0 mm 0.00 in0.0 mm
12:42 AM 62.1°F16.7°C 55.0°F12.8°C 78% Calm Calm -- 30.25 in1024.4 mb - 0.00 in0.0 mm 0.00 in0.0 mm
12:47 AM 61.7°F16.5°C 54.9°F12.7°C 78% Calm Calm -- 30.25 in1024.4 mb - 0.00 in0.0 mm 0.00 in0.0 mm
12:52 AM 61.5°F16.4°C 54.7°F12.6°C 78% Calm Calm -- 30.25 in1024.4 mb - 0.00 in0.0 mm 0.00 in0.0 mm
12:57 AM 61.3°F16.3°C 54.5°F12.5°C 78% Calm Calm -- 30.25 in1024.4 mb - 0.00 in0.0 mm 0.00 in0.0 mm
01:02 AM 61.0°F16.1°C 54.1°F12.3°C 78% Calm Calm -- 30.25 in1024.4 mb - 0.00 in0.0 mm 0.00 in0.0 mm
01:07 AM 60.8°F16.0°C 54.0°F12.2°C 78% Calm Calm -- 30.25 in1024.4 mb - 0.00 in0.0 mm 0.00 in0.0 mm
01:12 AM 60.6°F15.9°C 54.1°F12.3°C 79% Calm Calm -- 30.25 in1024.4 mb - 0.00 in0.0 mm 0.00 in0.0 mm
01:17 AM 60.3°F15.7°C 53.8°F12.1°C 79% Calm Calm -- 30.25 in1024.4 mb - 0.00 in0.0 mm 0.00 in0.0 mm
01:22 AM 60.1°F15.6°C 53.6°F12.0°C 79% Calm Calm -- 30.25 in1024.4 mb - 0.00 in0.0 mm 0.00 in0.0 mm
01:27 AM 60.1°F15.6°C 54.0°F12.2°C 80% Calm Calm -- 30.25 in1024.4 mb - 0.00 in0.0 mm 0.00 in0.0 mm
01:32 AM 59.9°F15.5°C 53.8°F12.1°C 80% Calm Calm -- 30.25 in1024.4 mb - 0.00 in0.0 mm 0.00 in0.0 mm
01:37 AM 59.7°F15.4°C 53.6°F12.0°C 80% Calm Calm -- 30.25 in1024.4 mb - 0.00 in0.0 mm 0.00 in0.0 mm
01:42 AM 59.5°F15.3°C 53.4°F11.9°C 80% Calm Calm -- 30.25 in1024.4 mb - 0.00 in0.0 mm 0.00 in0.0 mm
01:47 AM 59.4°F15.2°C 53.2°F11.8°C 80% Calm Calm -- 30.25 in1024.4 mb - 0.00 in0.0 mm 0.00 in0.0 mm
01:52 AM 59.4°F15.2°C 53.8°F12.1°C 82% Calm Calm -- 30.25 in1024.4 mb - 0.00 in0.0 mm 0.00 in0.0 mm
01:57 AM 59.2°F15.1°C 53.8°F12.1°C 82% Calm Calm -- 30.25 in1024.4 mb - 0.00 in0.0 mm 0.00 in0.0 mm
02:02 AM 59.2°F15.1°C 53.8°F12.1°C 82% Calm Calm -- 30.25 in1024.4 mb - 0.00 in0.0 mm 0.00 in0.0 mm
02:07 AM 59.0°F15.0°C 53.6°F12.0°C 82% Calm Calm -- 30.22 in1023.4 mb - 0.00 in0.0 mm 0.00 in0.0 mm
02:12 AM 58.8°F14.9°C 53.4°F11.9°C 82% Calm Calm -- 30.22 in1023.4 mb - 0.00 in0.0 mm 0.00 in0.0 mm
02:17 AM 58.8°F14.9°C 53.4°F11.9°C 82% Calm Calm -- 30.22 in1023.4 mb - 0.00 in0.0 mm 0.00 in0.0 mm
02:22 AM 58.6°F14.8°C 53.2°F11.8°C 82% Calm Calm -- 30.25 in1024.4 mb - 0.00 in0.0 mm 0.00 in0.0 mm
02:27 AM 58.8°F14.9°C 53.4°F11.9°C 82% Calm Calm -- 30.25 in1024.4 mb - 0.00 in0.0 mm 0.00 in0.0 mm
02:32 AM 58.8°F14.9°C 53.6°F12.0°C 83% Calm Calm -- 30.25 in1024.4 mb - 0.00 in0.0 mm 0.00 in0.0 mm
02:37 AM 58.8°F14.9°C 53.6°F12.0°C 83% Calm Calm -- 30.22 in1023.4 mb - 0.00 in0.0 mm 0.00 in0.0 mm
02:42 AM 58.8°F14.9°C 54.0°F12.2°C 84% Calm Calm -- 30.22 in1023.4 mb - 0.00 in0.0 mm 0.00 in0.0 mm
02:47 AM 58.6°F14.8°C 53.8°F12.1°C 84% Calm Calm -- 30.22 in1023.4 mb - 0.00 in0.0 mm 0.00 in0.0 mm
02:52 AM 58.6°F14.8°C 53.8°F12.1°C 84% Calm Calm -- 30.22 in1023.4 mb - 0.00 in0.0 mm 0.00 in0.0 mm
02:57 AM 58.6°F14.8°C 53.8°F12.1°C 84% Calm Calm -- 30.22 in1023.4 mb - 0.00 in0.0 mm 0.00 in0.0 mm
03:02 AM 58.8°F14.9°C 54.0°F12.2°C 84% Calm Calm -- 30.22 in1023.4 mb - 0.00 in0.0 mm 0.00 in0.0 mm
03:07 AM 59.0°F15.0°C 54.5°F12.5°C 85% Calm Calm -- 30.22 in1023.4 mb - 0.00 in0.0 mm 0.00 in0.0 mm
03:12 AM 59.4°F15.2°C 55.2°F12.9°C 86% Calm Calm -- 30.22 in1023.4 mb - 0.00 in0.0 mm 0.00 in0.0 mm
03:17 AM 59.7°F15.4°C 55.6°F13.1°C 86% Calm Calm -- 30.22 in1023.4 mb - 0.00 in0.0 mm 0.00 in0.0 mm
03:22 AM 60.4°F15.8°C 56.8°F13.8°C 88% 0.7 mph W1.1 kmh W 3.6 mph5.8 kmh 30.22 in1023.4 mb - 0.00 in0.0 mm 0.00 in0.0 mm
03:27 AM 61.5°F16.4°C 58.6°F14.8°C 90% 0.7 mph NW1.1 kmh NW 0.7 mph1.1 kmh 30.22 in1023.4 mb - 0.00 in0.0 mm 0.00 in0.0 mm
03:32 AM 61.9°F16.6°C 58.6°F14.8°C 89% 2.2 mph W3.5 kmh W 4.7 mph7.6 kmh 30.22 in1023.4 mb - 0.00 in0.0 mm 0.00 in0.0 mm
03:37 AM 62.1°F16.7°C 58.5°F14.7°C 88% 3.1 mph NW5.0 kmh NW 7.4 mph11.9 kmh 30.25 in1024.4 mb - 0.00 in0.0 mm 0.00 in0.0 mm
03:42 AM 62.4°F16.9°C 58.8°F14.9°C 88% 2.5 mph W4.0 kmh W 7.2 mph11.6 kmh 30.25 in1024.4 mb - 0.00 in0.0 mm 0.00 in0.0 mm
03:47 AM 62.6°F17.0°C 58.6°F14.8°C 87% 2.9 mph NW4.7 kmh NW 7.4 mph11.9 kmh 30.25 in1024.4 mb - 0.00 in0.0 mm 0.00 in0.0 mm
03:52 AM 62.8°F17.1°C 58.5°F14.7°C 86% 1.8 mph W2.9 kmh W 5.8 mph9.3 kmh 30.22 in1023.4 mb - 0.00 in0.0 mm 0.00 in0.0 mm
03:57 AM 63.1°F17.3°C 59.2°F15.1°C 87% 0.7 mph NW1.1 kmh NW 2.5 mph4.0 kmh 30.22 in1023.4 mb - 0.00 in0.0 mm 0.00 in0.0 mm
04:02 AM 63.5°F17.5°C 59.2°F15.1°C 86% 2.0 mph W3.2 kmh W 6.7 mph10.8 kmh 30.22 in1023.4 mb - 0.00 in0.0 mm 0.00 in0.0 mm
04:07 AM 63.9°F17.7°C 59.5°F15.3°C 86% 4.9 mph WNW7.9 kmh WNW 7.8 mph12.6 kmh 30.22 in1023.4 mb - 0.00 in0.0 mm 0.00 in0.0 mm
04:12 AM 64.0°F17.8°C 59.4°F15.2°C 85% 4.3 mph WSW6.9 kmh WSW 9.2 mph14.8 kmh 30.22 in1023.4 mb - 0.00 in0.0 mm 0.00 in0.0 mm
04:17 AM 64.0°F17.8°C 59.2°F15.1°C 84% 3.6 mph W5.8 kmh W 7.6 mph12.2 kmh 30.22 in1023.4 mb - 0.00 in0.0 mm 0.00 in0.0 mm
04:22 AM 64.0°F17.8°C 59.2°F15.1°C 84% 5.1 mph WSW8.2 kmh WSW 7.8 mph12.6 kmh 30.25 in1024.4 mb - 0.00 in0.0 mm 0.00 in0.0 mm
04:27 AM 64.2°F17.9°C 59.4°F15.2°C 84% 3.1 mph NW5.0 kmh NW 7.6 mph12.2 kmh 30.25 in1024.4 mb - 0.00 in0.0 mm 0.00 in0.0 mm
04:32 AM 64.2°F17.9°C 59.4°F15.2°C 84% 2.9 mph WSW4.7 kmh WSW 6.5 mph10.5 kmh 30.25 in1024.4 mb - 0.00 in0.0 mm 0.00 in0.0 mm
04:37 AM 64.2°F17.9°C 59.4°F15.2°C 84% 5.4 mph W8.7 kmh W 8.9 mph14.3 kmh 30.25 in1024.4 mb - 0.00 in0.0 mm 0.00 in0.0 mm
04:42 AM 64.6°F18.1°C 59.4°F15.2°C 83% 5.1 mph W8.2 kmh W 10.3 mph16.6 kmh 30.25 in1024.4 mb - 0.00 in0.0 mm 0.00 in0.0 mm
04:47 AM 64.4°F18.0°C 59.2°F15.1°C 83% 4.7 mph SW7.6 kmh SW 10.7 mph17.2 kmh 30.25 in1024.4 mb - 0.00 in0.0 mm 0.00 in0.0 mm
04:52 AM 64.4°F18.0°C 59.2°F15.1°C 83% 6.7 mph W10.8 kmh W 11.6 mph18.7 kmh 30.22 in1023.4 mb - 0.00 in0.0 mm 0.00 in0.0 mm
04:57 AM 64.6°F18.1°C 59.4°F15.2°C 83% 6.0 mph W9.7 kmh W 11.0 mph17.7 kmh 30.22 in1023.4 mb - 0.00 in0.0 mm 0.00 in0.0 mm
05:02 AM 64.4°F18.0°C 58.8°F14.9°C 82% 6.0 mph WSW9.7 kmh WSW 10.3 mph16.6 kmh 30.22 in1023.4 mb - 0.00 in0.0 mm 0.00 in0.0 mm
05:07 AM 64.4°F18.0°C 59.2°F15.1°C 83% 6.3 mph NW10.1 kmh NW 9.8 mph15.8 kmh 30.25 in1024.4 mb - 0.00 in0.0 mm 0.00 in0.0 mm
05:12 AM 64.2°F17.9°C 59.0°F15.0°C 83% 4.5 mph W7.2 kmh W 7.6 mph12.2 kmh 30.25 in1024.4 mb - 0.00 in0.0 mm 0.00 in0.0 mm
05:17 AM 64.2°F17.9°C 59.0°F15.0°C 83% 2.7 mph W4.3 kmh W 5.1 mph8.2 kmh 30.25 in1024.4 mb - 0.00 in0.0 mm 0.00 in0.0 mm
05:22 AM 64.0°F17.8°C 59.2°F15.1°C 84% 3.1 mph WSW5.0 kmh WSW 4.9 mph7.9 kmh 30.25 in1024.4 mb - 0.00 in0.0 mm 0.00 in0.0 mm
05:27 AM 64.2°F17.9°C 59.4°F15.2°C 84% 3.4 mph WSW5.5 kmh WSW 6.3 mph10.1 kmh 30.25 in1024.4 mb - 0.00 in0.0 mm 0.00 in0.0 mm
05:32 AM 64.2°F17.9°C 59.4°F15.2°C 84% 3.4 mph W5.5 kmh W 4.7 mph7.6 kmh 30.25 in1024.4 mb - 0.00 in0.0 mm 0.00 in0.0 mm
05:37 AM 64.0°F17.8°C 59.2°F15.1°C 84% 4.9 mph WNW7.9 kmh WNW 7.4 mph11.9 kmh 30.25 in1024.4 mb - 0.00 in0.0 mm 0.00 in0.0 mm
05:42 AM 64.0°F17.8°C 59.2°F15.1°C 84% 4.3 mph WNW6.9 kmh WNW 7.6 mph12.2 kmh 30.25 in1024.4 mb - 0.00 in0.0 mm 0.00 in0.0 mm
05:47 AM 64.0°F17.8°C 58.8°F14.9°C 83% 2.2 mph W3.5 kmh W 4.9 mph7.9 kmh 30.25 in1024.4 mb - 0.00 in0.0 mm 0.00 in0.0 mm
05:52 AM 63.9°F17.7°C 58.6°F14.8°C 83% 2.5 mph SW4.0 kmh SW 2.5 mph4.0 kmh 30.25 in1024.4 mb - 0.00 in0.0 mm 0.00 in0.0 mm
05:57 AM 64.0°F17.8°C 59.2°F15.1°C 84% 1.3 mph WSW2.1 kmh WSW 4.5 mph7.2 kmh 30.25 in1024.4 mb - 0.00 in0.0 mm 0.00 in0.0 mm
06:02 AM 64.0°F17.8°C 59.2°F15.1°C 84% 2.0 mph SW3.2 kmh SW 4.3 mph6.9 kmh 30.25 in1024.4 mb - 0.00 in0.0 mm 0.00 in0.0 mm
06:07 AM 64.2°F17.9°C 59.4°F15.2°C 84% 2.9 mph SW4.7 kmh SW 7.4 mph11.9 kmh 30.25 in1024.4 mb - 0.00 in0.0 mm 0.00 in0.0 mm
06:12 AM 64.2°F17.9°C 59.4°F15.2°C 84% 2.0 mph SSW3.2 kmh SSW 3.6 mph5.8 kmh 30.25 in1024.4 mb - 0.00 in0.0 mm 0.00 in0.0 mm
06:17 AM 64.4°F18.0°C 59.2°F15.1°C 83% 1.8 mph WSW2.9 kmh WSW 3.8 mph6.1 kmh 30.25 in1024.4 mb - 0.00 in0.0 mm 0.00 in0.0 mm
06:22 AM 64.6°F18.1°C 59.7°F15.4°C 84% 1.3 mph NW2.1 kmh NW 5.1 mph8.2 kmh 30.25 in1024.4 mb - 0.00 in0.0 mm 0.00 in0.0 mm
06:27 AM 64.8°F18.2°C 59.5°F15.3°C 83% 0.9 mph WNW1.4 kmh WNW 3.8 mph6.1 kmh 30.25 in1024.4 mb - 0.00 in0.0 mm 0.00 in0.0 mm
06:32 AM 64.9°F18.3°C 59.7°F15.4°C 83% 4.3 mph WSW6.9 kmh WSW 7.8 mph12.6 kmh 30.25 in1024.4 mb - 0.00 in0.0 mm 0.00 in0.0 mm
06:37 AM 65.1°F18.4°C 59.9°F15.5°C 83% 3.8 mph WSW6.1 kmh WSW 3.8 mph6.1 kmh 30.25 in1024.4 mb - 0.00 in0.0 mm 0.00 in0.0 mm
06:42 AM 65.5°F18.6°C 60.3°F15.7°C 83% 2.7 mph NW4.3 kmh NW 6.7 mph10.8 kmh 30.25 in1024.4 mb - 0.00 in0.0 mm 0.00 in0.0 mm
06:47 AM 65.8°F18.8°C 60.3°F15.7°C 82% 2.5 mph NW4.0 kmh NW 5.8 mph9.3 kmh 30.25 in1024.4 mb - 0.00 in0.0 mm 0.00 in0.0 mm
06:52 AM 66.4°F19.1°C 60.1°F15.6°C 80% 2.2 mph WSW3.5 kmh WSW 7.4 mph11.9 kmh 30.25 in1024.4 mb - 0.00 in0.0 mm 0.00 in0.0 mm
06:57 AM 66.7°F19.3°C 59.7°F15.4°C 78% 2.5 mph W4.0 kmh W 8.1 mph13.0 kmh 30.25 in1024.4 mb - 0.00 in0.0 mm 0.00 in0.0 mm
07:02 AM 67.1°F19.5°C 60.1°F15.6°C 78% 3.8 mph SW6.1 kmh SW 10.3 mph16.6 kmh 30.25 in1024.4 mb - 0.00 in0.0 mm 0.00 in0.0 mm
07:07 AM 67.3°F19.6°C 59.9°F15.5°C 77% 3.1 mph WNW5.0 kmh WNW 8.5 mph13.7 kmh 30.25 in1024.4 mb - 0.00 in0.0 mm 0.00 in0.0 mm
07:12 AM 67.6°F19.8°C 59.7°F15.4°C 76% 3.6 mph WSW5.8 kmh WSW 8.1 mph13.0 kmh 30.25 in1024.4 mb - 0.00 in0.0 mm 0.00 in0.0 mm
07:17 AM 68.0°F20.0°C 60.1°F15.6°C 76% 4.3 mph W6.9 kmh W 11.4 mph18.3 kmh 30.25 in1024.4 mb - 0.00 in0.0 mm 0.00 in0.0 mm
07:22 AM 68.4°F20.2°C 60.1°F15.6°C 75% 3.8 mph W6.1 kmh W 8.7 mph14.0 kmh 30.25 in1024.4 mb - 0.00 in0.0 mm 0.00 in0.0 mm
07:27 AM 68.5°F20.3°C 60.3°F15.7°C 75% 2.9 mph WSW4.7 kmh WSW 2.9 mph4.7 kmh 30.25 in1024.4 mb - 0.00 in0.0 mm 0.00 in0.0 mm
07:32 AM 68.7°F20.4°C 60.1°F15.6°C 74% 2.2 mph NW3.5 kmh NW 7.2 mph11.6 kmh 30.25 in1024.4 mb - 0.00 in0.0 mm 0.00 in0.0 mm
07:37 AM 68.7°F20.4°C 59.4°F15.2°C 72% 3.4 mph NW5.5 kmh NW 8.1 mph13.0 kmh 30.25 in1024.4 mb - 0.00 in0.0 mm 0.00 in0.0 mm
07:42 AM 68.5°F20.3°C 59.2°F15.1°C 72% 3.1 mph WSW5.0 kmh WSW 3.1 mph5.0 kmh 30.25 in1024.4 mb - 0.00 in0.0 mm 0.00 in0.0 mm
07:47 AM 68.9°F20.5°C 59.9°F15.5°C 73% 6.3 mph WNW10.1 kmh WNW 9.4 mph15.1 kmh 30.25 in1024.4 mb - 0.00 in0.0 mm 0.00 in0.0 mm
07:52 AM 69.3°F20.7°C 60.3°F15.7°C 73% 6.9 mph W11.1 kmh W 13.6 mph21.9 kmh 30.25 in1024.4 mb - 0.00 in0.0 mm 0.00 in0.0 mm
07:57 AM 69.3°F20.7°C 59.5°F15.3°C 71% 1.3 mph WSW2.1 kmh WSW 6.3 mph10.1 kmh 30.25 in1024.4 mb - 0.00 in0.0 mm 0.00 in0.0 mm
08:02 AM 68.7°F20.4°C 58.5°F14.7°C 70% 1.8 mph NW2.9 kmh NW 5.4 mph8.7 kmh 30.25 in1024.4 mb - 0.00 in0.0 mm 0.00 in0.0 mm
08:07 AM 68.9°F20.5°C 59.2°F15.1°C 71% 4.3 mph NW6.9 kmh NW 8.9 mph14.3 kmh 30.22 in1023.4 mb - 0.00 in0.0 mm 0.00 in0.0 mm
08:12 AM 69.3°F20.7°C 59.5°F15.3°C 71% 4.5 mph W7.2 kmh W 9.8 mph15.8 kmh 30.22 in1023.4 mb - 0.00 in0.0 mm 0.00 in0.0 mm
08:17 AM 69.6°F20.9°C 59.7°F15.4°C 71% 6.0 mph SSW9.7 kmh SSW 15.2 mph24.5 kmh 30.22 in1023.4 mb - 0.00 in0.0 mm 0.00 in0.0 mm
08:22 AM 69.8°F21.0°C 59.5°F15.3°C 70% 5.4 mph W8.7 kmh W 13.0 mph20.9 kmh 30.25 in1024.4 mb - 0.00 in0.0 mm 0.00 in0.0 mm
08:27 AM 70.2°F21.2°C 59.5°F15.3°C 69% 4.3 mph NW6.9 kmh NW 8.3 mph13.4 kmh 30.25 in1024.4 mb - 0.00 in0.0 mm 0.00 in0.0 mm
08:32 AM 70.3°F21.3°C 58.8°F14.9°C 67% 4.9 mph SW7.9 kmh SW 14.1 mph22.7 kmh 30.25 in1024.4 mb - 0.00 in0.0 mm 0.00 in0.0 mm
08:37 AM 70.7°F21.5°C 59.2°F15.1°C 67% 3.8 mph SW6.1 kmh SW 11.9 mph19.2 kmh 30.22 in1023.4 mb - 0.00 in0.0 mm 0.00 in0.0 mm
08:42 AM 71.1°F21.7°C 59.9°F15.5°C 68% 4.7 mph W7.6 kmh W 10.5 mph16.9 kmh 30.22 in1023.4 mb - 0.00 in0.0 mm 0.00 in0.0 mm
08:47 AM 70.9°F21.6°C 58.5°F14.7°C 65% 4.0 mph SW6.4 kmh SW 14.1 mph22.7 kmh 30.22 in1023.4 mb - 0.00 in0.0 mm 0.00 in0.0 mm
08:52 AM 71.2°F21.8°C 58.8°F14.9°C 65% 4.7 mph W7.6 kmh W 10.7 mph17.2 kmh 30.22 in1023.4 mb - 0.00 in0.0 mm 0.00 in0.0 mm
08:57 AM 71.1°F21.7°C 58.6°F14.8°C 65% 8.1 mph W13.0 kmh W 13.0 mph20.9 kmh 30.22 in1023.4 mb - 0.00 in0.0 mm 0.00 in0.0 mm
09:02 AM 71.4°F21.9°C 58.6°F14.8°C 64% 6.0 mph W9.7 kmh W 10.5 mph16.9 kmh 30.22 in1023.4 mb - 0.00 in0.0 mm 0.00 in0.0 mm
09:07 AM 71.8°F22.1°C 58.5°F14.7°C 63% 5.6 mph W9.0 kmh W 12.1 mph19.5 kmh 30.19 in1022.4 mb - 0.00 in0.0 mm 0.00 in0.0 mm
09:12 AM 72.0°F22.2°C 58.6°F14.8°C 63% 6.5 mph NW10.5 kmh NW 13.4 mph21.6 kmh 30.19 in1022.4 mb - 0.00 in0.0 mm 0.00 in0.0 mm
09:17 AM 72.1°F22.3°C 58.8°F14.9°C 63% 6.5 mph NW10.5 kmh NW 11.9 mph19.2 kmh 30.19 in1022.4 mb - 0.00 in0.0 mm 0.00 in0.0 mm
09:22 AM 72.3°F22.4°C 58.6°F14.8°C 62% 5.8 mph NW9.3 kmh NW 10.5 mph16.9 kmh 30.19 in1022.4 mb - 0.00 in0.0 mm 0.00 in0.0 mm
09:27 AM 72.7°F22.6°C 59.0°F15.0°C 62% 5.8 mph WNW9.3 kmh WNW 14.1 mph22.7 kmh 30.19 in1022.4 mb - 0.00 in0.0 mm 0.00 in0.0 mm
09:32 AM 72.7°F22.6°C 58.5°F14.7°C 61% 4.0 mph NW6.4 kmh NW 9.6 mph15.4 kmh 30.19 in1022.4 mb - 0.00 in0.0 mm 0.00 in0.0 mm
09:37 AM 72.7°F22.6°C 57.9°F14.4°C 60% 2.9 mph WSW4.7 kmh WSW 8.7 mph14.0 kmh 30.19 in1022.4 mb - 0.00 in0.0 mm 0.00 in0.0 mm
09:42 AM 72.9°F22.7°C 58.1°F14.5°C 60% 5.4 mph WNW8.7 kmh WNW 11.9 mph19.2 kmh 30.19 in1022.4 mb - 0.00 in0.0 mm 0.00 in0.0 mm
09:47 AM 72.9°F22.7°C 58.1°F14.5°C 60% 7.4 mph WNW11.9 kmh WNW 15.2 mph24.5 kmh 30.19 in1022.4 mb - 0.00 in0.0 mm 0.00 in0.0 mm
09:52 AM 73.4°F23.0°C 58.6°F14.8°C 60% 5.6 mph WNW9.0 kmh WNW 13.4 mph21.6 kmh 30.22 in1023.4 mb - 0.00 in0.0 mm 0.00 in0.0 mm
09:57 AM 73.6°F23.1°C 58.8°F14.9°C 60% 6.5 mph W10.5 kmh W 11.2 mph18.0 kmh 30.22 in1023.4 mb - 0.00 in0.0 mm 0.00 in0.0 mm
10:02 AM 73.9°F23.3°C 58.3°F14.6°C 58% 5.6 mph W9.0 kmh W 11.6 mph18.7 kmh 30.22 in1023.4 mb - 0.00 in0.0 mm 0.00 in0.0 mm
10:07 AM 73.9°F23.3°C 57.7°F14.3°C 57% 3.8 mph WNW6.1 kmh WNW 9.4 mph15.1 kmh 30.22 in1023.4 mb - 0.00 in0.0 mm 0.00 in0.0 mm
10:12 AM 74.3°F23.5°C 58.6°F14.8°C 58% 4.5 mph NNW7.2 kmh NNW 8.7 mph14.0 kmh 30.22 in1023.4 mb - 0.00 in0.0 mm 0.00 in0.0 mm
10:17 AM 74.3°F23.5°C 58.1°F14.5°C 57% 5.8 mph NW9.3 kmh NW 13.6 mph21.9 kmh 30.22 in1023.4 mb - 0.00 in0.0 mm 0.00 in0.0 mm
10:22 AM 74.7°F23.7°C 57.9°F14.4°C 56% 5.8 mph WNW9.3 kmh WNW 10.3 mph16.6 kmh 30.22 in1023.4 mb - 0.00 in0.0 mm 0.00 in0.0 mm
10:27 AM 74.8°F23.8°C 58.1°F14.5°C 56% 4.3 mph WNW6.9 kmh WNW 12.5 mph20.1 kmh 30.22 in1023.4 mb - 0.00 in0.0 mm 0.00 in0.0 mm
10:32 AM 75.0°F23.9°C 57.7°F14.3°C 55% 5.1 mph NW8.2 kmh NW 11.2 mph18.0 kmh 30.22 in1023.4 mb - 0.00 in0.0 mm 0.00 in0.0 mm
10:37 AM 75.2°F24.0°C 56.8°F13.8°C 53% 5.8 mph NW9.3 kmh NW 14.5 mph23.3 kmh 30.22 in1023.4 mb - 0.00 in0.0 mm 0.00 in0.0 mm
10:42 AM 75.2°F24.0°C 56.3°F13.5°C 52% 6.3 mph NW10.1 kmh NW 12.5 mph20.1 kmh 30.22 in1023.4 mb - 0.00 in0.0 mm 0.00 in0.0 mm
10:47 AM 75.2°F24.0°C 57.4°F14.1°C 54% 6.5 mph NW10.5 kmh NW 11.9 mph19.2 kmh 30.22 in1023.4 mb - 0.00 in0.0 mm 0.00 in0.0 mm
10:52 AM 75.4°F24.1°C 57.0°F13.9°C 53% 7.4 mph NW11.9 kmh NW 17.9 mph28.8 kmh 30.19 in1022.4 mb - 0.00 in0.0 mm 0.00 in0.0 mm
10:57 AM 75.9°F24.4°C 58.1°F14.5°C 54% 5.8 mph NW9.3 kmh NW 10.7 mph17.2 kmh 30.19 in1022.4 mb - 0.00 in0.0 mm 0.00 in0.0 mm
11:02 AM 76.3°F24.6°C 57.4°F14.1°C 52% 4.3 mph NNW6.9 kmh NNW 14.5 mph23.3 kmh 30.19 in1022.4 mb - 0.00 in0.0 mm 0.00 in0.0 mm
11:07 AM 76.1°F24.5°C 56.7°F13.7°C 51% 6.9 mph NNE11.1 kmh NNE 11.9 mph19.2 kmh 30.22 in1023.4 mb - 0.00 in0.0 mm 0.00 in0.0 mm
11:12 AM 76.1°F24.5°C 56.7°F13.7°C 51% 5.4 mph NW8.7 kmh NW 16.1 mph25.9 kmh 30.22 in1023.4 mb - 0.00 in0.0 mm 0.00 in0.0 mm
11:17 AM 76.5°F24.7°C 57.6°F14.2°C 52% 6.3 mph NW10.1 kmh NW 14.3 mph23.0 kmh 30.22 in1023.4 mb - 0.00 in0.0 mm 0.00 in0.0 mm
11:22 AM 76.5°F24.7°C 57.6°F14.2°C 52% 7.2 mph WNW11.6 kmh WNW 15.2 mph24.5 kmh 30.19 in1022.4 mb - 0.00 in0.0 mm 0.00 in0.0 mm
11:27 AM 76.8°F24.9°C 57.9°F14.4°C 52% 6.0 mph NW9.7 kmh NW 12.5 mph20.1 kmh 30.19 in1022.4 mb - 0.00 in0.0 mm 0.00 in0.0 mm
11:32 AM 77.2°F25.1°C 57.0°F13.9°C 50% 6.5 mph NW10.5 kmh NW 13.0 mph20.9 kmh 30.19 in1022.4 mb - 0.00 in0.0 mm 0.00 in0.0 mm
11:37 AM 77.0°F25.0°C 57.0°F13.9°C 50% 5.4 mph W8.7 kmh W 12.1 mph19.5 kmh 30.19 in1022.4 mb - 0.00 in0.0 mm 0.00 in0.0 mm
11:42 AM 76.6°F24.8°C 57.2°F14.0°C 51% 4.5 mph NW7.2 kmh NW 8.9 mph14.3 kmh 30.19 in1022.4 mb - 0.00 in0.0 mm 0.00 in0.0 mm
11:47 AM 76.8°F24.9°C 57.9°F14.4°C 52% 6.0 mph W9.7 kmh W 11.4 mph18.3 kmh 30.19 in1022.4 mb - 0.00 in0.0 mm 0.00 in0.0 mm
11:52 AM 77.2°F25.1°C 56.5°F13.6°C 49% 8.7 mph NNW14.0 kmh NNW 17.4 mph28.0 kmh 30.19 in1022.4 mb - 0.00 in0.0 mm 0.00 in0.0 mm
11:57 AM 77.2°F25.1°C 56.5°F13.6°C 49% 7.4 mph WNW11.9 kmh WNW 16.8 mph27.0 kmh 30.19 in1022.4 mb - 0.00 in0.0 mm 0.00 in0.0 mm
12:02 PM 77.4°F25.2°C 57.2°F14.0°C 50% 4.3 mph W6.9 kmh W 10.5 mph16.9 kmh 30.19 in1022.4 mb - 0.00 in0.0 mm 0.00 in0.0 mm
12:07 PM 77.5°F25.3°C 57.4°F14.1°C 50% 6.3 mph WNW10.1 kmh WNW 15.4 mph24.8 kmh 30.19 in1022.4 mb - 0.00 in0.0 mm 0.00 in0.0 mm
12:12 PM 77.7°F25.4°C 57.0°F13.9°C 49% 4.5 mph W7.2 kmh W 10.7 mph17.2 kmh 30.19 in1022.4 mb - 0.00 in0.0 mm 0.00 in0.0 mm
12:17 PM 77.7°F25.4°C 56.5°F13.6°C 48% 6.0 mph W9.7 kmh W 12.5 mph20.1 kmh 30.19 in1022.4 mb - 0.00 in0.0 mm 0.00 in0.0 mm
12:22 PM 77.9°F25.5°C 56.7°F13.7°C 48% 4.9 mph WNW7.9 kmh WNW 4.9 mph7.9 kmh 30.19 in1022.4 mb - 0.00 in0.0 mm 0.00 in0.0 mm
12:27 PM 78.1°F25.6°C 56.8°F13.8°C 48% 5.4 mph NW8.7 kmh NW 11.9 mph19.2 kmh 30.19 in1022.4 mb - 0.00 in0.0 mm 0.00 in0.0 mm
12:32 PM 78.1°F25.6°C 56.8°F13.8°C 48% 4.0 mph WNW6.4 kmh WNW 4.0 mph6.4 kmh 30.19 in1022.4 mb - 0.00 in0.0 mm 0.00 in0.0 mm
12:37 PM 78.4°F25.8°C 57.2°F14.0°C 48% 5.8 mph NW9.3 kmh NW 10.5 mph16.9 kmh 30.16 in1021.3 mb - 0.00 in0.0 mm 0.00 in0.0 mm
12:42 PM 78.4°F25.8°C 57.2°F14.0°C 48% 5.4 mph N8.7 kmh N 10.3 mph16.6 kmh 30.16 in1021.3 mb - 0.00 in0.0 mm 0.00 in0.0 mm
12:47 PM 78.1°F25.6°C 56.3°F13.5°C 47% 6.0 mph NNE9.7 kmh NNE 15.2 mph24.5 kmh 30.16 in1021.3 mb - 0.00 in0.0 mm 0.00 in0.0 mm
12:52 PM 78.3°F25.7°C 57.0°F13.9°C 48% 4.7 mph WNW7.6 kmh WNW 10.5 mph16.9 kmh 30.19 in1022.4 mb - 0.00 in0.0 mm 0.00 in0.0 mm
12:57 PM 78.4°F25.8°C 57.2°F14.0°C 48% 6.9 mph NW11.1 kmh NW 13.0 mph20.9 kmh 30.19 in1022.4 mb - 0.00 in0.0 mm 0.00 in0.0 mm
01:02 PM 78.4°F25.8°C 57.2°F14.0°C 48% 3.8 mph NW6.1 kmh NW 10.7 mph17.2 kmh 30.19 in1022.4 mb - 0.00 in0.0 mm 0.00 in0.0 mm
01:07 PM 77.9°F25.5°C 55.4°F13.0°C 46% 4.7 mph WNW7.6 kmh WNW 8.7 mph14.0 kmh 30.16 in1021.3 mb - 0.00 in0.0 mm 0.00 in0.0 mm
01:12 PM 78.1°F25.6°C 56.3°F13.5°C 47% 5.1 mph WNW8.2 kmh WNW 11.0 mph17.7 kmh 30.16 in1021.3 mb - 0.00 in0.0 mm 0.00 in0.0 mm
01:17 PM 78.4°F25.8°C 57.2°F14.0°C 48% 9.6 mph WNW15.4 kmh WNW 16.6 mph26.7 kmh 30.16 in1021.3 mb - 0.00 in0.0 mm 0.00 in0.0 mm
01:22 PM 78.8°F26.0°C 56.8°F13.8°C 47% 5.1 mph NW8.2 kmh NW 9.8 mph15.8 kmh 30.16 in1021.3 mb - 0.00 in0.0 mm 0.00 in0.0 mm
01:27 PM 79.2°F26.2°C 57.7°F14.3°C 48% 6.9 mph NNW11.1 kmh NNW 14.5 mph23.3 kmh 30.16 in1021.3 mb - 0.00 in0.0 mm 0.00 in0.0 mm
01:32 PM 79.3°F26.3°C 57.4°F14.1°C 47% 4.7 mph NNW7.6 kmh NNW 11.2 mph18.0 kmh 30.16 in1021.3 mb - 0.00 in0.0 mm 0.00 in0.0 mm
01:37 PM 78.4°F25.8°C 56.5°F13.6°C 47% 4.9 mph WNW7.9 kmh WNW 14.1 mph22.7 kmh 30.16 in1021.3 mb - 0.00 in0.0 mm 0.00 in0.0 mm
01:42 PM 79.2°F26.2°C 57.7°F14.3°C 48% 6.3 mph NW10.1 kmh NW 6.3 mph10.1 kmh 30.16 in1021.3 mb - 0.00 in0.0 mm 0.00 in0.0 mm
01:47 PM 79.7°F26.5°C 57.7°F14.3°C 47% 4.0 mph WSW6.4 kmh WSW 11.0 mph17.7 kmh 30.16 in1021.3 mb - 0.00 in0.0 mm 0.00 in0.0 mm
01:52 PM 79.2°F26.2°C 56.7°F13.7°C 46% 5.4 mph N8.7 kmh N 11.4 mph18.3 kmh 30.16 in1021.3 mb - 0.00 in0.0 mm 0.00 in0.0 mm
01:57 PM 79.5°F26.4°C 57.6°F14.2°C 47% 6.3 mph WNW10.1 kmh WNW 13.6 mph21.9 kmh 30.16 in1021.3 mb - 0.00 in0.0 mm 0.00 in0.0 mm
02:02 PM 79.5°F26.4°C 57.6°F14.2°C 47% 4.0 mph NW6.4 kmh NW 10.7 mph17.2 kmh 30.16 in1021.3 mb - 0.00 in0.0 mm 0.00 in0.0 mm
02:07 PM 79.7°F26.5°C 58.3°F14.6°C 48% 5.4 mph NW8.7 kmh NW 11.9 mph19.2 kmh 30.13 in1020.3 mb - 0.00 in0.0 mm 0.00 in0.0 mm
02:12 PM 79.5°F26.4°C 57.6°F14.2°C 47% 2.5 mph NW4.0 kmh NW 7.6 mph12.2 kmh 30.13 in1020.3 mb - 0.00 in0.0 mm 0.00 in0.0 mm
02:17 PM 79.9°F26.6°C 57.9°F14.4°C 47% 6.9 mph NW11.1 kmh NW 12.8 mph20.6 kmh 30.13 in1020.3 mb - 0.00 in0.0 mm 0.00 in0.0 mm
02:22 PM 80.4°F26.9°C 59.0°F15.0°C 48% 6.0 mph WNW9.7 kmh WNW 11.0 mph17.7 kmh 30.13 in1020.3 mb - 0.00 in0.0 mm 0.00 in0.0 mm
02:27 PM 80.8°F27.1°C 58.1°F14.5°C 46% 2.5 mph SW4.0 kmh SW 7.4 mph11.9 kmh 30.13 in1020.3 mb - 0.00 in0.0 mm 0.00 in0.0 mm
02:32 PM 81.0°F27.2°C 58.3°F14.6°C 46% 3.8 mph NW6.1 kmh NW 6.9 mph11.1 kmh 30.13 in1020.3 mb - 0.00 in0.0 mm 0.00 in0.0 mm
02:37 PM 81.0°F27.2°C 58.3°F14.6°C 46% 4.7 mph WSW7.6 kmh WSW 9.6 mph15.4 kmh 30.16 in1021.3 mb - 0.00 in0.0 mm 0.00 in0.0 mm
02:42 PM 81.0°F27.2°C 58.3°F14.6°C 46% 5.4 mph NNW8.7 kmh NNW 10.7 mph17.2 kmh 30.16 in1021.3 mb - 0.00 in0.0 mm 0.00 in0.0 mm
02:47 PM 80.6°F27.0°C 57.4°F14.1°C 45% 4.9 mph NNW7.9 kmh NNW 10.1 mph16.3 kmh 30.16 in1021.3 mb - 0.00 in0.0 mm 0.00 in0.0 mm
02:52 PM 81.0°F27.2°C 58.3°F14.6°C 46% 5.1 mph WNW8.2 kmh WNW 11.4 mph18.3 kmh 30.16 in1021.3 mb - 0.00 in0.0 mm 0.00 in0.0 mm
02:57 PM 81.1°F27.3°C 57.7°F14.3°C 45% 6.5 mph W10.5 kmh W 10.1 mph16.3 kmh 30.16 in1021.3 mb - 0.00 in0.0 mm 0.00 in0.0 mm
03:02 PM 81.1°F27.3°C 57.7°F14.3°C 45% 3.6 mph WNW5.8 kmh WNW 9.6 mph15.4 kmh 30.16 in1021.3 mb - 0.00 in0.0 mm 0.00 in0.0 mm
03:07 PM 80.8°F27.1°C 57.4°F14.1°C 45% 3.6 mph W5.8 kmh W 6.3 mph10.1 kmh 30.19 in1022.4 mb - 0.00 in0.0 mm 0.00 in0.0 mm
03:12 PM 81.1°F27.3°C 57.7°F14.3°C 45% 6.5 mph WSW10.5 kmh WSW 10.5 mph16.9 kmh 30.19 in1022.4 mb - 0.00 in0.0 mm 0.00 in0.0 mm
03:17 PM 81.0°F27.2°C 57.0°F13.9°C 44% 6.3 mph NW10.1 kmh NW 10.7 mph17.2 kmh 30.19 in1022.4 mb - 0.00 in0.0 mm 0.00 in0.0 mm
03:22 PM 81.1°F27.3°C 57.7°F14.3°C 45% 5.4 mph NW8.7 kmh NW 5.4 mph8.7 kmh 30.16 in1021.3 mb - 0.00 in0.0 mm 0.00 in0.0 mm
03:27 PM 81.3°F27.4°C 57.4°F14.1°C 44% 6.7 mph WSW10.8 kmh WSW 11.9 mph19.2 kmh 30.16 in1021.3 mb - 0.00 in0.0 mm 0.00 in0.0 mm
03:32 PM 81.5°F27.5°C 58.1°F14.5°C 45% 5.4 mph NW8.7 kmh NW 11.0 mph17.7 kmh 30.16 in1021.3 mb - 0.00 in0.0 mm 0.00 in0.0 mm
03:37 PM 81.7°F27.6°C 58.3°F14.6°C 45% 4.3 mph WNW6.9 kmh WNW 8.5 mph13.7 kmh 30.16 in1021.3 mb - 0.00 in0.0 mm 0.00 in0.0 mm
03:42 PM 81.3°F27.4°C 57.4°F14.1°C 44% 5.4 mph WNW8.7 kmh WNW 10.1 mph16.3 kmh 30.16 in1021.3 mb - 0.00 in0.0 mm 0.00 in0.0 mm
03:47 PM 81.3°F27.4°C 57.4°F14.1°C 44% 5.1 mph WNW8.2 kmh WNW 10.7 mph17.2 kmh 30.16 in1021.3 mb - 0.00 in0.0 mm 0.00 in0.0 mm
03:52 PM 81.5°F27.5°C 57.6°F14.2°C 44% 6.5 mph W10.5 kmh W 11.2 mph18.0 kmh 30.16 in1021.3 mb - 0.00 in0.0 mm 0.00 in0.0 mm
03:57 PM 82.0°F27.8°C 57.9°F14.4°C 44% 4.0 mph NW6.4 kmh NW 8.3 mph13.4 kmh 30.16 in1021.3 mb - 0.00 in0.0 mm 0.00 in0.0 mm
04:02 PM 81.7°F27.6°C 57.7°F14.3°C 44% 4.3 mph W6.9 kmh W 8.7 mph14.0 kmh 30.16 in1021.3 mb - 0.00 in0.0 mm 0.00 in0.0 mm
04:07 PM 82.0°F27.8°C 57.9°F14.4°C 44% 5.6 mph WSW9.0 kmh WSW 12.3 mph19.8 kmh 30.16 in1021.3 mb - 0.00 in0.0 mm 0.00 in0.0 mm
04:12 PM 81.9°F27.7°C 57.7°F14.3°C 44% 5.4 mph WSW8.7 kmh WSW 10.3 mph16.6 kmh 30.16 in1021.3 mb - 0.00 in0.0 mm 0.00 in0.0 mm
04:17 PM 81.7°F27.6°C 57.7°F14.3°C 44% 5.8 mph WSW9.3 kmh WSW 10.1 mph16.3 kmh 30.16 in1021.3 mb - 0.00 in0.0 mm 0.00 in0.0 mm
04:22 PM 82.0°F27.8°C 57.4°F14.1°C 43% 4.9 mph W7.9 kmh W 8.5 mph13.7 kmh 30.16 in1021.3 mb - 0.00 in0.0 mm 0.00 in0.0 mm
04:27 PM 81.9°F27.7°C 57.2°F14.0°C 43% 6.5 mph WSW10.5 kmh WSW 9.8 mph15.8 kmh 30.16 in1021.3 mb - 0.00 in0.0 mm 0.00 in0.0 mm
04:32 PM 81.9°F27.7°C 56.5°F13.6°C 42% 4.7 mph NW7.6 kmh NW 10.5 mph16.9 kmh 30.16 in1021.3 mb - 0.00 in0.0 mm 0.00 in0.0 mm
04:37 PM 82.4°F28.0°C 57.7°F14.3°C 43% 5.6 mph W9.0 kmh W 5.6 mph9.0 kmh 30.13 in1020.3 mb - 0.00 in0.0 mm 0.00 in0.0 mm
04:42 PM 82.2°F27.9°C 56.8°F13.8°C 42% 5.8 mph W9.3 kmh W 12.3 mph19.8 kmh 30.13 in1020.3 mb - 0.00 in0.0 mm 0.00 in0.0 mm
04:47 PM 82.6°F28.1°C 57.2°F14.0°C 42% 2.5 mph W4.0 kmh W 9.4 mph15.1 kmh 30.13 in1020.3 mb - 0.00 in0.0 mm 0.00 in0.0 mm
04:52 PM 82.8°F28.2°C 57.4°F14.1°C 42% 6.7 mph WSW10.8 kmh WSW 11.4 mph18.3 kmh 30.13 in1020.3 mb - 0.00 in0.0 mm 0.00 in0.0 mm
04:57 PM 82.8°F28.2°C 57.4°F14.1°C 42% 4.3 mph SW6.9 kmh SW 8.9 mph14.3 kmh 30.13 in1020.3 mb - 0.00 in0.0 mm 0.00 in0.0 mm
05:02 PM 82.8°F28.2°C 57.4°F14.1°C 42% 4.5 mph NNW7.2 kmh NNW 4.5 mph7.2 kmh 30.13 in1020.3 mb - 0.00 in0.0 mm 0.00 in0.0 mm
05:07 PM 82.2°F27.9°C 56.1°F13.4°C 41% 2.7 mph NNW4.3 kmh NNW 6.9 mph11.1 kmh 30.13 in1020.3 mb - 0.00 in0.0 mm 0.00 in0.0 mm
05:12 PM 82.4°F28.0°C 57.0°F13.9°C 42% 4.0 mph WNW6.4 kmh WNW 10.1 mph16.3 kmh 30.13 in1020.3 mb - 0.00 in0.0 mm 0.00 in0.0 mm
05:17 PM 82.4°F28.0°C 57.0°F13.9°C 42% 5.4 mph W8.7 kmh W 10.5 mph16.9 kmh 30.13 in1020.3 mb - 0.00 in0.0 mm 0.00 in0.0 mm
05:22 PM 82.6°F28.1°C 57.2°F14.0°C 42% 2.9 mph WSW4.7 kmh WSW 6.7 mph10.8 kmh 30.13 in1020.3 mb - 0.00 in0.0 mm 0.00 in0.0 mm
05:27 PM 82.6°F28.1°C 57.2°F14.0°C 42% 4.9 mph W7.9 kmh W 9.2 mph14.8 kmh 30.13 in1020.3 mb - 0.00 in0.0 mm 0.00 in0.0 mm
05:32 PM 82.4°F28.0°C 57.0°F13.9°C 42% 5.1 mph W8.2 kmh W 8.3 mph13.4 kmh 30.13 in1020.3 mb - 0.00 in0.0 mm 0.00 in0.0 mm
05:37 PM 82.8°F28.2°C 57.4°F14.1°C 42% 3.8 mph WSW6.1 kmh WSW 10.7 mph17.2 kmh 30.13 in1020.3 mb - 0.00 in0.0 mm 0.00 in0.0 mm
05:42 PM 82.9°F28.3°C 58.1°F14.5°C 43% 5.8 mph WNW9.3 kmh WNW 5.8 mph9.3 kmh 30.13 in1020.3 mb - 0.00 in0.0 mm 0.00 in0.0 mm
05:47 PM 82.9°F28.3°C 57.6°F14.2°C 42% 3.8 mph WSW6.1 kmh WSW 10.3 mph16.6 kmh 30.13 in1020.3 mb - 0.00 in0.0 mm 0.00 in0.0 mm
05:52 PM 82.4°F28.0°C 57.0°F13.9°C 42% 4.7 mph WSW7.6 kmh WSW 7.6 mph12.2 kmh 30.13 in1020.3 mb - 0.00 in0.0 mm 0.00 in0.0 mm
05:57 PM 82.4°F28.0°C 57.0°F13.9°C 42% 4.3 mph WNW6.9 kmh WNW 6.5 mph10.5 kmh 30.13 in1020.3 mb - 0.00 in0.0 mm 0.00 in0.0 mm
06:02 PM 82.4°F28.0°C 56.3°F13.5°C 41% 6.7 mph WNW10.8 kmh WNW 10.3 mph16.6 kmh 30.13 in1020.3 mb - 0.00 in0.0 mm 0.00 in0.0 mm
06:07 PM 82.2°F27.9°C 56.1°F13.4°C 41% 3.8 mph WSW6.1 kmh WSW 6.5 mph10.5 kmh 30.10 in1019.3 mb - 0.00 in0.0 mm 0.00 in0.0 mm
06:12 PM 81.9°F27.7°C 56.5°F13.6°C 42% 4.7 mph W7.6 kmh W 8.3 mph13.4 kmh 30.10 in1019.3 mb - 0.00 in0.0 mm 0.00 in0.0 mm
06:17 PM 81.7°F27.6°C 55.8°F13.2°C 41% 5.6 mph WSW9.0 kmh WSW 9.8 mph15.8 kmh 30.10 in1019.3 mb - 0.00 in0.0 mm 0.00 in0.0 mm
06:22 PM 81.9°F27.7°C 56.5°F13.6°C 42% 5.6 mph WNW9.0 kmh WNW 8.5 mph13.7 kmh 30.10 in1019.3 mb - 0.00 in0.0 mm 0.00 in0.0 mm
06:27 PM 81.9°F27.7°C 56.5°F13.6°C 42% 4.7 mph NW7.6 kmh NW 9.4 mph15.1 kmh 30.10 in1019.3 mb - 0.00 in0.0 mm 0.00 in0.0 mm
06:32 PM 81.7°F27.6°C 56.3°F13.5°C 42% 3.8 mph W6.1 kmh W 10.3 mph16.6 kmh 30.10 in1019.3 mb - 0.00 in0.0 mm 0.00 in0.0 mm
06:37 PM 81.5°F27.5°C 56.1°F13.4°C 42% 3.8 mph NW6.1 kmh NW 8.3 mph13.4 kmh 30.10 in1019.3 mb - 0.00 in0.0 mm 0.00 in0.0 mm
06:42 PM 81.7°F27.6°C 57.0°F13.9°C 43% 4.3 mph NW6.9 kmh NW 7.8 mph12.6 kmh 30.10 in1019.3 mb - 0.00 in0.0 mm 0.00 in0.0 mm
06:47 PM 81.5°F27.5°C 56.8°F13.8°C 43% 4.0 mph NW6.4 kmh NW 7.6 mph12.2 kmh 30.10 in1019.3 mb - 0.00 in0.0 mm 0.00 in0.0 mm
06:52 PM 81.7°F27.6°C 57.0°F13.9°C 43% 3.8 mph W6.1 kmh W 8.7 mph14.0 kmh 30.10 in1019.3 mb - 0.00 in0.0 mm 0.00 in0.0 mm
06:57 PM 81.7°F27.6°C 57.0°F13.9°C 43% 3.6 mph NW5.8 kmh NW 6.9 mph11.1 kmh 30.10 in1019.3 mb - 0.00 in0.0 mm 0.00 in0.0 mm
07:02 PM 81.5°F27.5°C 56.8°F13.8°C 43% 2.0 mph WNW3.2 kmh WNW 5.1 mph8.2 kmh 30.10 in1019.3 mb - 0.00 in0.0 mm 0.00 in0.0 mm
07:07 PM 81.0°F27.2°C 56.3°F13.5°C 43% 3.4 mph NW5.5 kmh NW 7.2 mph11.6 kmh 30.10 in1019.3 mb - 0.00 in0.0 mm 0.00 in0.0 mm
07:12 PM 81.0°F27.2°C 56.3°F13.5°C 43% 4.9 mph WNW7.9 kmh WNW 8.9 mph14.3 kmh 30.10 in1019.3 mb - 0.00 in0.0 mm 0.00 in0.0 mm
07:17 PM 81.0°F27.2°C 57.0°F13.9°C 44% 4.5 mph WNW7.2 kmh WNW 9.4 mph15.1 kmh 30.10 in1019.3 mb - 0.00 in0.0 mm 0.00 in0.0 mm
07:22 PM 80.6°F27.0°C 56.7°F13.7°C 44% 2.5 mph NW4.0 kmh NW 6.3 mph10.1 kmh 30.10 in1019.3 mb - 0.00 in0.0 mm 0.00 in0.0 mm
07:27 PM 80.6°F27.0°C 56.7°F13.7°C 44% 3.6 mph NW5.8 kmh NW 8.3 mph13.4 kmh 30.10 in1019.3 mb - 0.00 in0.0 mm 0.00 in0.0 mm
07:32 PM 80.4°F26.9°C 57.2°F14.0°C 45% 3.1 mph NW5.0 kmh NW 6.5 mph10.5 kmh 30.10 in1019.3 mb - 0.00 in0.0 mm 0.00 in0.0 mm
07:37 PM 80.2°F26.8°C 57.0°F13.9°C 45% 2.0 mph NW3.2 kmh NW 5.8 mph9.3 kmh 30.13 in1020.3 mb - 0.00 in0.0 mm 0.00 in0.0 mm
07:42 PM 79.7°F26.5°C 56.5°F13.6°C 45% 1.1 mph W1.8 kmh W 7.2 mph11.6 kmh 30.13 in1020.3 mb - 0.00 in0.0 mm 0.00 in0.0 mm
07:47 PM 79.2°F26.2°C 55.9°F13.3°C 45% 3.1 mph W5.0 kmh W 6.7 mph10.8 kmh 30.13 in1020.3 mb - 0.00 in0.0 mm 0.00 in0.0 mm
07:52 PM 78.8°F26.0°C 55.8°F13.2°C 45% 2.9 mph WSW4.7 kmh WSW 7.4 mph11.9 kmh 30.10 in1019.3 mb - 0.00 in0.0 mm 0.00 in0.0 mm
07:57 PM 78.3°F25.7°C 55.8°F13.2°C 46% 0.9 mph W1.4 kmh W 5.6 mph9.0 kmh 30.10 in1019.3 mb - 0.00 in0.0 mm 0.00 in0.0 mm
08:02 PM 77.9°F25.5°C 55.4°F13.0°C 46% 1.3 mph W2.1 kmh W 5.8 mph9.3 kmh 30.10 in1019.3 mb - 0.00 in0.0 mm 0.00 in0.0 mm
08:07 PM 77.5°F25.3°C 55.8°F13.2°C 47% 1.6 mph WNW2.6 kmh WNW 5.1 mph8.2 kmh 30.10 in1019.3 mb - 0.00 in0.0 mm 0.00 in0.0 mm
08:12 PM 77.2°F25.1°C 55.9°F13.3°C 48% 3.4 mph WNW5.5 kmh WNW 3.4 mph5.5 kmh 30.10 in1019.3 mb - 0.00 in0.0 mm 0.00 in0.0 mm
08:17 PM 76.6°F24.8°C 56.7°F13.7°C 50% 2.9 mph NW4.7 kmh NW 6.5 mph10.5 kmh 30.10 in1019.3 mb - 0.00 in0.0 mm 0.00 in0.0 mm
08:22 PM 76.3°F24.6°C 56.3°F13.5°C 50% 2.7 mph WNW4.3 kmh WNW 4.5 mph7.2 kmh 30.10 in1019.3 mb - 0.00 in0.0 mm 0.00 in0.0 mm
08:27 PM 75.4°F24.1°C 55.9°F13.3°C 51% 2.2 mph WNW3.5 kmh WNW 3.4 mph5.5 kmh 30.10 in1019.3 mb - 0.00 in0.0 mm 0.00 in0.0 mm
08:32 PM 75.0°F23.9°C 56.1°F13.4°C 52% 1.3 mph W2.1 kmh W 2.7 mph4.3 kmh 30.10 in1019.3 mb - 0.00 in0.0 mm 0.00 in0.0 mm
08:37 PM 75.0°F23.9°C 56.7°F13.7°C 53% Calm Calm -- 30.10 in1019.3 mb - 0.00 in0.0 mm 0.00 in0.0 mm
08:42 PM 74.8°F23.8°C 56.5°F13.6°C 53% 2.2 mph WNW3.5 kmh WNW 4.9 mph7.9 kmh 30.10 in1019.3 mb - 0.00 in0.0 mm 0.00 in0.0 mm
08:47 PM 74.3°F23.5°C 56.1°F13.4°C 53% 2.9 mph NW4.7 kmh NW 4.3 mph6.9 kmh 30.10 in1019.3 mb - 0.00 in0.0 mm 0.00 in0.0 mm
08:52 PM 73.9°F23.3°C 56.3°F13.5°C 54% 1.1 mph W1.8 kmh W 2.5 mph4.0 kmh 30.10 in1019.3 mb - 0.00 in0.0 mm 0.00 in0.0 mm
08:57 PM 73.6°F23.1°C 56.5°F13.6°C 55% 0.4 mph WSW0.6 kmh WSW 2.7 mph4.3 kmh 30.10 in1019.3 mb - 0.00 in0.0 mm 0.00 in0.0 mm
09:02 PM 73.0°F22.8°C 56.5°F13.6°C 56% Calm Calm -- 30.10 in1019.3 mb - 0.00 in0.0 mm 0.00 in0.0 mm
09:07 PM 72.7°F22.6°C 56.1°F13.4°C 56% Calm Calm -- 30.10 in1019.3 mb - 0.00 in0.0 mm 0.00 in0.0 mm
09:12 PM 72.1°F22.3°C 56.1°F13.4°C 57% Calm Calm -- 30.10 in1019.3 mb - 0.00 in0.0 mm 0.00 in0.0 mm
09:17 PM 72.0°F22.2°C 56.3°F13.5°C 58% Calm Calm -- 30.10 in1019.3 mb - 0.00 in0.0 mm 0.00 in0.0 mm
09:22 PM 71.6°F22.0°C 56.5°F13.6°C 59% Calm Calm -- 30.13 in1020.3 mb - 0.00 in0.0 mm 0.00 in0.0 mm
09:27 PM 71.2°F21.8°C 56.7°F13.7°C 60% Calm Calm -- 30.13 in1020.3 mb - 0.00 in0.0 mm 0.00 in0.0 mm
09:32 PM 70.7°F21.5°C 56.7°F13.7°C 61% Calm Calm -- 30.13 in1020.3 mb - 0.00 in0.0 mm 0.00 in0.0 mm
09:37 PM 70.2°F21.2°C 56.1°F13.4°C 61% Calm Calm -- 30.13 in1020.3 mb - 0.00 in0.0 mm 0.00 in0.0 mm
09:42 PM 70.0°F21.1°C 56.3°F13.5°C 62% Calm Calm -- 30.13 in1020.3 mb - 0.00 in0.0 mm 0.00 in0.0 mm
09:47 PM 69.8°F21.0°C 56.1°F13.4°C 62% Calm Calm -- 30.13 in1020.3 mb - 0.00 in0.0 mm 0.00 in0.0 mm
09:52 PM 69.6°F20.9°C 57.4°F14.1°C 65% Calm Calm -- 30.13 in1020.3 mb - 0.00 in0.0 mm 0.00 in0.0 mm
09:57 PM 69.4°F20.8°C 57.2°F14.0°C 65% Calm Calm -- 30.13 in1020.3 mb - 0.00 in0.0 mm 0.00 in0.0 mm
10:02 PM 68.9°F20.5°C 57.6°F14.2°C 67% Calm Calm -- 30.13 in1020.3 mb - 0.00 in0.0 mm 0.00 in0.0 mm
10:07 PM 68.7°F20.4°C 57.4°F14.1°C 67% Calm Calm -- 30.13 in1020.3 mb - 0.00 in0.0 mm 0.00 in0.0 mm
10:12 PM 68.7°F20.4°C 57.4°F14.1°C 67% Calm Calm -- 30.13 in1020.3 mb - 0.00 in0.0 mm 0.00 in0.0 mm
10:17 PM 68.5°F20.3°C 57.6°F14.2°C 68% Calm Calm -- 30.13 in1020.3 mb - 0.00 in0.0 mm 0.00 in0.0 mm
10:22 PM 68.5°F20.3°C 57.2°F14.0°C 67% Calm Calm -- 30.13 in1020.3 mb - 0.00 in0.0 mm 0.00 in0.0 mm
10:27 PM 68.4°F20.2°C 57.4°F14.1°C 68% Calm Calm -- 30.13 in1020.3 mb - 0.00 in0.0 mm 0.00 in0.0 mm
10:32 PM 68.0°F20.0°C 57.0°F13.9°C 68% Calm Calm -- 30.13 in1020.3 mb - 0.00 in0.0 mm 0.00 in0.0 mm
10:37 PM 67.8°F19.9°C 58.1°F14.5°C 71% Calm Calm -- 30.13 in1020.3 mb - 0.00 in0.0 mm 0.00 in0.0 mm
10:42 PM 67.6°F19.8°C 57.9°F14.4°C 71% Calm Calm -- 30.13 in1020.3 mb - 0.00 in0.0 mm 0.00 in0.0 mm
10:47 PM 67.5°F19.7°C 57.4°F14.1°C 70% Calm Calm -- 30.13 in1020.3 mb - 0.00 in0.0 mm 0.00 in0.0 mm
10:52 PM 67.5°F19.7°C 57.7°F14.3°C 71% Calm Calm -- 30.13 in1020.3 mb - 0.00 in0.0 mm 0.00 in0.0 mm
10:57 PM 67.5°F19.7°C 57.7°F14.3°C 71% Calm Calm -- 30.13 in1020.3 mb - 0.00 in0.0 mm 0.00 in0.0 mm
11:02 PM 67.5°F19.7°C 58.1°F14.5°C 72% 2.5 mph WSW4.0 kmh WSW 5.4 mph8.7 kmh 30.13 in1020.3 mb - 0.00 in0.0 mm 0.00 in0.0 mm
11:07 PM 67.3°F19.6°C 57.9°F14.4°C 72% 0.9 mph WSW1.4 kmh WSW 3.8 mph6.1 kmh 30.13 in1020.3 mb - 0.00 in0.0 mm 0.00 in0.0 mm
11:12 PM 67.1°F19.5°C 57.4°F14.1°C 71% 2.0 mph SW3.2 kmh SW 4.5 mph7.2 kmh 30.13 in1020.3 mb - 0.00 in0.0 mm 0.00 in0.0 mm
11:17 PM 66.9°F19.4°C 57.6°F14.2°C 72% 1.3 mph W2.1 kmh W 3.6 mph5.8 kmh 30.13 in1020.3 mb - 0.00 in0.0 mm 0.00 in0.0 mm
11:22 PM 66.7°F19.3°C 57.4°F14.1°C 72% 1.8 mph SW2.9 kmh SW 3.4 mph5.5 kmh 30.13 in1020.3 mb - 0.00 in0.0 mm 0.00 in0.0 mm
11:27 PM 66.6°F19.2°C 56.8°F13.8°C 71% 0.4 mph W0.6 kmh W 2.2 mph3.5 kmh 30.13 in1020.3 mb - 0.00 in0.0 mm 0.00 in0.0 mm
11:32 PM 66.2°F19.0°C 57.4°F14.1°C 73% 1.3 mph SW2.1 kmh SW 3.1 mph5.0 kmh 30.13 in1020.3 mb - 0.00 in0.0 mm 0.00 in0.0 mm
11:37 PM 65.8°F18.8°C 57.4°F14.1°C 74% 1.8 mph SSW2.9 kmh SSW 3.4 mph5.5 kmh 30.13 in1020.3 mb - 0.00 in0.0 mm 0.00 in0.0 mm
11:42 PM 65.7°F18.7°C 57.2°F14.0°C 74% 1.8 mph WSW2.9 kmh WSW 2.7 mph4.3 kmh 30.13 in1020.3 mb - 0.00 in0.0 mm 0.00 in0.0 mm
11:47 PM 65.5°F18.6°C 57.4°F14.1°C 75% 0.2 mph SW0.3 kmh SW 2.0 mph3.2 kmh 30.13 in1020.3 mb - 0.00 in0.0 mm 0.00 in0.0 mm
11:52 PM 65.5°F18.6°C 57.4°F14.1°C 75% 0.2 mph SW0.3 kmh SW 2.5 mph4.0 kmh 30.13 in1020.3 mb - 0.00 in0.0 mm 0.00 in0.0 mm
11:57 PM 65.5°F18.6°C 57.4°F14.1°C 75% 1.3 mph SW2.1 kmh SW 2.9 mph4.7 kmh 30.13 in1020.3 mb - 0.00 in0.0 mm 0.00 in0.0 mm